Main page
METAR-TAF:

METAR-TAF

Airports :

Jinnah International Airport

Karachi, Pakistan

latitude: 24-54N, longitude: 067-08E, elevation: 21 m

Current weather observation

The report was made 54 minutes ago, at 23:25 UTC
Calm wind
Temperature 10°C
Humidity 66%
Pressure 1017 hPa
Visibility: 5000 m
smoke

METAR: OPKC 252325Z 00000KT 5000 FU NSC 10/04 Q1017 NOSIG

Time: 05:19 (00:19 UTC)

Forecast

The report was made 2 hours and 49 minutes ago, at 21:30 UTC
Forecast valid from 26 at 00 UTC to 27 at 06 UTC
Wind 10 kt from the North/Northeast
Visibility: 6000 m
Temporary
from 26 at 00 UTC to 26 at 04 UTC
Wind kt from the North
Visibility: 2500 m
haze
Temporary
from 26 at 10 UTC to 26 at 16 UTC
Wind 10 kt from the Southwest
Visibility: 5000 m
haze
Temporary
from 27 at 00 UTC to 27 at 05 UTC
Wind kt from the North
Visibility: 2000 m
smoke

TAF: OPKC 252130Z 2600/2706 03010KT 6000 NSC TEMPO 2600/2604 00000KT 2500 HZ NSC TEMPO 2610/2616 23010KT 5000 HZ NSC TEMPO 2700/2705 00000KT 2000 FU NSC

Weather observations and forecasts of more than 4000 airports (METAR and TAF reports).

The available stations are represented by yellow and red dots on the map.

Hover mouse over dot to see the name of the station.

Then click to see weather observations and forecasts.

To change the map : click on the green buttons with a black cross to zoom in, on the green button with a dash to zoom out, or on the green arrows for adjacent maps.


METAR-TAF: